Time;durP1;ratioP1;P1;durP2;ratioP2;P2;SDS_P1;SDS_P2;PMS_P1;PMS_P2;Temp;Humidity;BMP_temperature;BMP_pressure;BME280_temperature;BME280_humidity;BME280_pressure;Samples;Min_cycle;Max_cycle;Signal;HPM_P1;HPM_P2
2021/08/09 00:01:25;;;;;;;6.88;5.10;;;21.00;79.30;;;;;;4995040;28;20034;-75
2021/08/09 00:03:51;;;;;;;10.68;5.38;;;21.00;79.50;;;;;;4995100;28;20042;-75
2021/08/09 00:06:17;;;;;;;6.90;5.25;;;20.90;79.40;;;;;;4995120;28;20022;-75
2021/08/09 00:08:43;;;;;;;6.80;5.53;;;20.90;79.50;;;;;;4977528;28;20030;-75
2021/08/09 00:11:09;;;;;;;6.93;5.10;;;20.90;79.50;;;;;;4994934;28;20462;-75
2021/08/09 00:13:35;;;;;;;6.80;5.38;;;20.90;79.60;;;;;;4994969;28;20034;-74
2021/08/09 00:16:01;;;;;;;7.00;5.22;;;20.80;79.50;;;;;;4995031;28;20837;-75
2021/08/09 00:18:27;;;;;;;7.22;5.32;;;20.80;79.50;;;;;;4994550;28;20035;-75
2021/08/09 00:20:53;;;;;;;5.72;4.78;;;20.90;79.60;;;;;;4994768;28;20049;-75
2021/08/09 00:23:20;;;;;;;8.88;5.43;;;20.90;79.70;;;;;;4994765;28;20022;-75
2021/08/09 00:25:45;;;;;;;9.23;5.20;;;20.80;79.60;;;;;;4994659;28;20108;-74
2021/08/09 00:28:11;;;;;;;7.47;5.40;;;20.90;80.20;;;;;;4994589;28;20429;-75
2021/08/09 00:30:37;;;;;;;7.18;5.72;;;20.80;79.60;;;;;;4994669;28;20037;-75
2021/08/09 00:33:03;;;;;;;6.72;5.68;;;20.80;79.60;;;;;;4994648;28;20588;-76
2021/08/09 00:35:29;;;;;;;7.20;5.70;;;20.80;79.60;;;;;;4994823;28;20026;-77
2021/08/09 00:37:55;;;;;;;9.30;5.53;;;20.70;79.60;;;;;;4994565;28;20045;-76
2021/08/09 00:40:21;;;;;;;6.88;5.53;;;20.70;79.70;;;;;;4977315;28;20504;-76
2021/08/09 00:42:46;;;;;;;8.18;5.20;;;20.70;79.80;;;;;;4994541;28;20490;-76
2021/08/09 00:45:12;;;;;;;8.45;5.40;;;20.60;79.90;;;;;;4994619;28;20022;-76
2021/08/09 00:47:38;;;;;;;10.60;6.03;;;20.60;80.00;;;;;;4994792;28;20065;-76
2021/08/09 00:50:05;;;;;;;7.80;5.82;;;20.60;80.10;;;;;;4994785;28;20112;-77
2021/08/09 00:52:31;;;;;;;6.68;5.43;;;20.60;80.10;;;;;;4994614;28;20030;-77
2021/08/09 00:54:57;;;;;;;8.73;5.90;;;20.60;80.10;;;;;;4994575;28;20030;-77
2021/08/09 00:57:23;;;;;;;10.10;5.53;;;20.60;80.20;;;;;;4994780;28;20057;-76
2021/08/09 00:59:49;;;;;;;7.13;5.30;;;20.60;80.30;;;;;;4994439;28;20022;-76
2021/08/09 01:02:15;;;;;;;7.18;5.43;;;20.60;80.20;;;;;;4994337;28;20030;-77
2021/08/09 01:04:40;;;;;;;7.35;5.07;;;20.50;80.20;;;;;;4994531;28;20027;-77
2021/08/09 01:07:07;;;;;;;5.53;5.03;;;20.50;80.20;;;;;;4994319;28;20092;-77
2021/08/09 01:09:51;;;;;;;9.55;5.93;;;20.60;80.30;;;;;;4994457;28;20076;-77
2021/08/09 01:12:40;;;;;;;6.38;5.78;;;20.50;80.30;;;;;;4994334;28;20126;-77
2021/08/09 01:15:16;;;;;;;8.30;5.40;;;20.50;80.20;;;;;;4983891;28;20043;-77
2021/08/09 01:17:45;;;;;;;12.13;5.78;;;20.50;80.20;;;;;;4994294;28;20385;-76
2021/08/09 01:20:36;;;;;;;9.23;5.93;;;20.50;80.10;;;;;;4994417;28;20476;-76
2021/08/09 01:23:35;;;;;;;5.93;5.25;;;20.50;80.10;;;;;;4994382;28;20030;-77
2021/08/09 01:26:22;;;;;;;6.47;5.32;;;20.50;80.10;;;;;;4994413;28;20895;-77
2021/08/09 01:28:48;;;;;;;7.47;5.80;;;20.40;80.00;;;;;;4993846;28;20026;-75
2021/08/09 01:31:17;;;;;;;7.20;6.28;;;20.30;80.00;;;;;;4993950;28;20057;-76
2021/08/09 01:33:44;;;;;;;10.15;5.80;;;20.30;80.20;;;;;;4976337;28;20702;-75
2021/08/09 01:36:11;;;;;;;7.63;5.75;;;20.20;80.50;;;;;;4993852;28;20062;-76
2021/08/09 01:38:37;;;;;;;7.60;5.93;;;20.20;80.70;;;;;;4993810;28;20026;-75
2021/08/09 01:41:04;;;;;;;10.48;6.43;;;20.20;80.90;;;;;;4993520;28;20027;-75
2021/08/09 01:43:31;;;;;;;9.05;5.97;;;20.20;81.10;;;;;;4994024;28;20023;-75
2021/08/09 01:45:59;;;;;;;7.07;6.03;;;20.10;81.10;;;;;;4994160;28;20030;-75
2021/08/09 01:48:26;;;;;;;7.20;6.03;;;20.10;81.20;;;;;;4976330;28;20750;-75
2021/08/09 01:50:53;;;;;;;9.85;6.45;;;20.10;81.20;;;;;;4976419;28;20721;-74
2021/08/09 01:53:19;;;;;;;6.43;5.78;;;20.10;81.20;;;;;;4993941;28;20027;-75
2021/08/09 01:55:45;;;;;;;7.38;5.63;;;20.10;81.40;;;;;;4993886;28;20489;-74
2021/08/09 01:58:11;;;;;;;6.40;5.72;;;20.10;81.40;;;;;;4993497;28;20430;-75
2021/08/09 02:00:37;;;;;;;8.50;5.32;;;20.10;81.50;;;;;;4993691;28;20080;-74
2021/08/09 02:03:03;;;;;;;6.13;5.53;;;20.10;81.60;;;;;;4993886;28;20064;-74
2021/08/09 02:05:29;;;;;;;9.43;5.82;;;20.00;81.70;;;;;;4993488;28;20034;-74
2021/08/09 02:07:55;;;;;;;10.02;5.53;;;20.10;81.70;;;;;;4993078;28;20385;-74
2021/08/09 02:10:24;;;;;;;7.35;5.45;;;20.10;81.70;;;;;;4993262;28;20078;-75
2021/08/09 02:13:18;;;;;;;7.82;5.70;;;20.10;81.80;;;;;;4993451;28;20472;-75
2021/08/09 02:16:18;;;;;;;7.68;5.60;;;20.10;81.70;;;;;;4993517;28;20050;-75
2021/08/09 02:19:10;;;;;;;7.57;5.78;;;20.10;81.80;;;;;;4993181;28;20053;-75
2021/08/09 02:21:40;;;;;;;;;;;20.10;81.70;;;;;;4985220;28;20038;-75
2021/08/09 02:24:11;;;;;;;7.57;6.30;;;20.10;81.50;;;;;;4993184;28;19906;-75
2021/08/09 02:26:50;;;;;;;7.03;5.75;;;20.10;81.60;;;;;;4992842;28;20453;-75
2021/08/09 02:29:24;;;;;;;7.45;6.10;;;20.10;81.80;;;;;;4992743;28;20084;-75
2021/08/09 02:31:51;;;;;;;7.20;5.70;;;20.10;81.80;;;;;;4992640;28;20033;-75
2021/08/09 02:34:21;;;;;;;8.82;6.05;;;20.10;81.90;;;;;;4992883;28;20036;-75
2021/08/09 02:36:47;;;;;;;7.35;5.80;;;20.10;81.90;;;;;;4975553;28;20030;-75
2021/08/09 02:39:15;;;;;;;9.95;5.93;;;20.10;81.90;;;;;;4991943;28;20030;-75
2021/08/09 02:41:41;;;;;;;12.50;6.70;;;20.10;81.90;;;;;;4992731;28;20137;-75
2021/08/09 02:44:08;;;;;;;9.65;6.10;;;20.10;82.00;;;;;;4992832;28;20066;-75
2021/08/09 02:46:35;;;;;;;10.32;5.70;;;20.20;82.00;;;;;;4993184;28;20473;-75
2021/08/09 02:49:01;;;;;;;8.38;5.85;;;20.20;81.90;;;;;;4975675;28;20393;-74
2021/08/09 02:51:27;;;;;;;9.77;5.88;;;20.30;81.80;;;;;;4992872;28;20073;-75
2021/08/09 02:53:53;;;;;;;8.07;6.50;;;20.40;81.70;;;;;;4992720;28;20027;-75
2021/08/09 02:56:24;;;;;;;11.80;6.53;;;20.50;81.40;;;;;;4975551;28;20149;-75
2021/08/09 02:58:53;;;;;;;9.18;6.22;;;20.70;80.90;;;;;;4992867;28;20105;-75
2021/08/09 03:01:19;;;;;;;8.20;5.50;;;20.90;80.20;;;;;;4992731;28;20413;-75
2021/08/09 03:03:49;;;;;;;6.93;5.97;;;20.90;79.60;;;;;;4993182;28;20031;-75
2021/08/09 03:06:15;;;;;;;11.38;6.47;;;21.10;79.60;;;;;;4992783;28;20037;-75
2021/08/09 03:08:44;;;;;;;10.18;5.43;;;21.30;79.60;;;;;;4992978;28;20105;-75
2021/08/09 03:11:09;;;;;;;9.73;5.55;;;21.90;78.90;;;;;;4975774;28;20022;-76
2021/08/09 03:13:36;;;;;;;13.57;6.13;;;22.60;77.50;;;;;;4993086;28;20535;-76
2021/08/09 03:16:01;;;;;;;13.20;6.38;;;23.30;75.80;;;;;;4993099;28;20101;-76
2021/08/09 03:18:33;;;;;;;11.35;9.93;;;24.10;73.90;;;;;;4992469;28;20117;-76
2021/08/09 03:20:59;;;;;;;8.88;7.05;;;24.80;71.70;;;;;;4992479;28;20027;-76
2021/08/09 03:23:25;;;;;;;6.10;4.80;;;25.70;69.80;;;;;;4992591;28;20045;-76
2021/08/09 03:25:51;;;;;;;8.43;5.30;;;26.50;67.70;;;;;;4992922;28;20446;-75
2021/08/09 03:28:16;;;;;;;5.60;5.03;;;27.30;65.60;;;;;;4992549;28;20334;-75
2021/08/09 03:30:42;;;;;;;9.05;4.90;;;28.10;63.90;;;;;;4992680;28;20027;-75
2021/08/09 03:33:08;;;;;;;14.15;5.93;;;28.90;62.20;;;;;;4992362;28;20057;-76
2021/08/09 03:35:34;;;;;;;9.55;4.95;;;29.60;60.50;;;;;;4992329;28;20030;-75
2021/08/09 03:37:59;;;;;;;11.15;5.72;;;30.30;59.10;;;;;;4992286;28;20030;-76
2021/08/09 03:40:25;;;;;;;6.15;4.72;;;30.90;58.40;;;;;;4992220;28;20080;-76
2021/08/09 03:42:52;;;;;;;9.07;4.60;;;31.50;56.60;;;;;;4992080;28;20026;-76
2021/08/09 03:45:19;;;;;;;8.13;4.45;;;32.00;55.40;;;;;;4992094;28;20014;-76
2021/08/09 03:47:44;;;;;;;8.55;5.30;;;32.20;54.30;;;;;;4992092;28;20153;-76
2021/08/09 03:50:10;;;;;;;7.15;4.45;;;31.90;53.50;;;;;;4991977;28;20065;-76
2021/08/09 03:52:44;;;;;;;5.20;4.70;;;31.30;53.60;;;;;;4994845;28;20465;-76
2021/08/09 03:55:10;;;;;;;8.75;5.43;;;30.60;54.30;;;;;;4995317;28;20041;-75
2021/08/09 03:57:35;;;;;;;8.07;4.95;;;30.20;55.40;;;;;;4995244;28;20026;-75
2021/08/09 04:00:03;;;;;;;12.23;4.70;;;30.50;55.90;;;;;;4995453;28;20026;-75
2021/08/09 04:02:30;;;;;;;12.00;5.03;;;31.40;55.20;;;;;;4995211;28;20037;-76
2021/08/09 04:04:58;;;;;;;9.60;5.35;;;32.50;54.00;;;;;;4995126;28;20105;-75
2021/08/09 04:07:27;;;;;;;7.47;4.40;;;33.50;52.60;;;;;;4995237;28;20149;-75
2021/08/09 04:09:54;;;;;;;12.45;5.32;;;34.50;51.40;;;;;;4994876;28;20019;-77
2021/08/09 04:12:21;;;;;;;8.25;4.90;;;35.40;49.90;;;;;;4994603;28;20018;-76
2021/08/09 04:14:47;;;;;;;8.75;4.80;;;36.20;48.80;;;;;;4994408;28;20041;-76
2021/08/09 04:17:13;;;;;;;6.35;4.70;;;37.00;47.80;;;;;;4994605;28;20089;-75
2021/08/09 04:19:40;;;;;;;9.40;4.80;;;37.70;46.80;;;;;;4994264;28;20019;-75
2021/08/09 04:22:06;;;;;;;10.75;7.35;;;38.30;45.90;;;;;;4992717;28;20035;-75
2021/08/09 04:24:32;;;;;;;6.20;5.60;;;39.00;45.10;;;;;;4990606;28;20396;-76
2021/08/09 04:26:58;;;;;;;5.68;4.45;;;39.50;44.40;;;;;;4992922;28;20129;-75
2021/08/09 04:29:23;;;;;;;12.68;5.55;;;40.00;43.60;;;;;;4992452;28;20026;-76
2021/08/09 04:31:49;;;;;;;12.85;8.48;;;40.60;43.10;;;;;;4992232;28;20355;-76
2021/08/09 04:34:15;;;;;;;13.05;6.13;;;41.10;42.40;;;;;;4992558;28;20038;-75
2021/08/09 04:36:41;;;;;;;5.40;4.90;;;41.40;41.80;;;;;;4992659;28;20026;-75
2021/08/09 04:39:07;;;;;;;6.05;4.60;;;41.80;41.40;;;;;;4992546;28;20117;-75
2021/08/09 04:41:33;;;;;;;12.13;5.80;;;42.10;40.90;;;;;;4992150;28;20547;-75
2021/08/09 04:43:58;;;;;;;7.22;5.40;;;42.50;40.50;;;;;;4992445;28;20022;-75
2021/08/09 04:46:24;;;;;;;12.07;5.63;;;42.80;40.10;;;;;;4992419;28;20022;-74
2021/08/09 04:48:50;;;;;;;8.73;5.53;;;43.10;39.80;;;;;;4992430;28;20022;-76
2021/08/09 04:51:16;;;;;;;10.68;5.22;;;43.30;39.40;;;;;;4992327;28;20026;-75
2021/08/09 04:53:43;;;;;;;7.57;4.60;;;43.60;39.20;;;;;;4992441;28;20036;-75
2021/08/09 04:56:09;;;;;;;8.38;4.95;;;43.90;38.80;;;;;;4992251;28;20101;-76
2021/08/09 04:58:34;;;;;;;7.43;4.85;;;44.20;38.50;;;;;;4992246;28;20098;-76
2021/08/09 05:01:00;;;;;;;14.15;6.07;;;44.50;38.30;;;;;;4973656;28;20073;-75
2021/08/09 05:03:26;;;;;;;11.45;4.75;;;44.70;38.00;;;;;;4991483;28;20034;-74
2021/08/09 05:05:51;;;;;;;8.88;5.35;;;44.90;37.70;;;;;;4992245;28;20022;-74
2021/08/09 05:08:17;;;;;;;14.02;5.30;;;45.00;37.40;;;;;;4992118;28;20046;-75
2021/08/09 05:10:43;;;;;;;16.00;5.25;;;45.10;37.20;;;;;;4992321;28;20030;-74
2021/08/09 05:13:09;;;;;;;11.77;5.03;;;45.20;37.00;;;;;;4991751;28;20461;-75
2021/08/09 05:15:36;;;;;;;10.48;5.30;;;45.30;36.80;;;;;;4991846;28;20026;-75
2021/08/09 05:18:03;;;;;;;10.00;5.22;;;45.40;36.70;;;;;;4991790;28;20170;-76
2021/08/09 05:20:29;;;;;;;6.88;4.22;;;45.50;36.60;;;;;;4992066;28;20465;-75
2021/08/09 05:22:55;;;;;;;12.57;5.57;;;45.70;36.40;;;;;;4991456;28;20499;-75
2021/08/09 05:25:22;;;;;;;10.52;5.20;;;45.80;36.40;;;;;;4991540;28;20018;-75
2021/08/09 05:27:48;;;;;;;11.73;5.75;;;46.00;36.30;;;;;;4991680;28;20076;-75
2021/08/09 05:30:14;;;;;;;8.02;5.40;;;46.10;36.20;;;;;;4991601;28;20441;-76
2021/08/09 05:32:40;;;;;;;9.18;5.70;;;46.20;36.00;;;;;;4991155;28;20108;-76
2021/08/09 05:35:07;;;;;;;9.57;5.05;;;46.30;36.00;;;;;;4991531;28;20861;-75
2021/08/09 05:37:34;;;;;;;8.07;5.15;;;46.60;35.90;;;;;;4988691;28;20780;-75
2021/08/09 05:40:00;;;;;;;8.65;6.35;;;46.70;35.80;;;;;;4990988;28;20020;-75
2021/08/09 05:42:26;;;;;;;10.88;5.10;;;47.00;35.60;;;;;;4991328;28;20033;-75
2021/08/09 05:44:52;;;;;;;7.03;5.18;;;47.20;35.50;;;;;;4991859;28;20026;-75
2021/08/09 05:47:18;;;;;;;9.57;5.32;;;47.50;35.40;;;;;;4992109;28;20362;-75
2021/08/09 05:49:44;;;;;;;14.75;6.07;;;47.70;35.10;;;;;;4992457;28;20019;-78
2021/08/09 05:52:24;;;;;;;12.27;5.57;;;47.80;35.00;;;;;;4992433;28;20523;-75
2021/08/09 05:54:50;;;;;;;8.82;5.28;;;48.00;34.80;;;;;;4992961;28;20763;-76
2021/08/09 05:57:16;;;;;;;5.80;5.18;;;48.20;34.80;;;;;;4992593;28;20096;-77
2021/08/09 05:59:42;;;;;;;10.43;4.70;;;48.30;34.50;;;;;;4992458;28;20022;-74
2021/08/09 06:02:07;;;;;;;8.20;5.78;;;48.30;34.40;;;;;;4991436;28;20117;-72
2021/08/09 06:04:33;;;;;;;12.30;5.43;;;48.30;34.30;;;;;;4991906;28;20476;-73
2021/08/09 06:06:59;;;;;;;8.52;5.30;;;48.40;34.30;;;;;;4992525;28;20028;-72
2021/08/09 06:09:25;;;;;;;11.25;6.00;;;48.40;34.30;;;;;;4974849;28;20027;-73
2021/08/09 06:11:50;;;;;;;8.75;5.30;;;48.40;34.30;;;;;;4992191;28;20361;-73
2021/08/09 06:14:16;;;;;;;11.60;10.40;;;48.40;34.30;;;;;;4991960;28;20113;-72
2021/08/09 06:16:42;;;;;;;6.57;5.05;;;48.40;34.30;;;;;;4991820;28;20026;-72
2021/08/09 06:19:07;;;;;;;7.63;5.50;;;48.40;34.20;;;;;;4991733;28;20033;-72
2021/08/09 06:21:33;;;;;;;5.13;4.60;;;48.40;34.20;;;;;;4991769;28;20109;-72
2021/08/09 06:23:59;;;;;;;9.95;5.22;;;48.40;34.20;;;;;;4991583;28;20069;-72
2021/08/09 06:26:24;;;;;;;5.60;5.07;;;48.40;34.10;;;;;;4991755;28;20030;-73
2021/08/09 06:28:50;;;;;;;7.05;5.70;;;48.40;34.20;;;;;;4991366;28;20034;-73
2021/08/09 06:31:16;;;;;;;10.65;5.68;;;48.50;34.30;;;;;;4974288;28;20035;-72
2021/08/09 06:33:42;;;;;;;10.90;5.22;;;48.30;34.20;;;;;;4991965;28;20046;-73
2021/08/09 06:36:08;;;;;;;11.85;6.38;;;48.50;34.40;;;;;;4992010;28;20528;-71
2021/08/09 06:38:33;;;;;;;9.10;4.78;;;48.50;34.30;;;;;;4991625;28;20741;-72
2021/08/09 06:40:59;;;;;;;9.27;4.95;;;48.50;34.20;;;;;;4991646;28;20189;-72
2021/08/09 06:43:25;;;;;;;9.00;4.70;;;48.50;34.20;;;;;;4991417;28;20018;-71
2021/08/09 06:45:50;;;;;;;9.63;4.72;;;48.50;34.30;;;;;;4991753;28;20384;-74
2021/08/09 06:48:16;;;;;;;9.02;5.10;;;48.30;34.30;;;;;;4974204;28;20415;-75
2021/08/09 06:50:42;;;;;;;6.60;4.70;;;48.10;34.40;;;;;;4991580;28;20105;-73
2021/08/09 06:53:09;;;;;;;8.35;4.78;;;48.10;34.50;;;;;;4991476;28;20019;-72
2021/08/09 06:55:35;;;;;;;6.50;5.30;;;47.90;34.50;;;;;;5007130;28;20473;-78
2021/08/09 06:58:01;;;;;;;8.20;6.07;;;47.80;34.60;;;;;;4990250;28;20037;-78
2021/08/09 07:00:26;;;;;;;5.15;4.65;;;47.70;34.70;;;;;;4991623;28;20034;-78
2021/08/09 07:02:52;;;;;;;9.57;5.40;;;47.60;34.80;;;;;;4991879;28;20026;-77
2021/08/09 07:05:18;;;;;;;7.45;5.75;;;47.50;35.60;;;;;;4991924;28;20038;-77
2021/08/09 07:07:44;;;;;;;9.20;4.90;;;47.40;35.10;;;;;;4991055;28;20030;-78
2021/08/09 07:10:11;;;;;;;6.28;5.35;;;47.40;35.10;;;;;;4991192;28;20031;-77
2021/08/09 07:12:37;;;;;;;7.60;5.00;;;47.40;35.30;;;;;;4991565;28;20026;-78
2021/08/09 07:15:03;;;;;;;7.22;5.22;;;47.30;35.40;;;;;;4991855;28;20028;-78
2021/08/09 07:17:37;;;;;;;9.85;5.05;;;47.20;35.40;;;;;;4991873;28;20037;-78
2021/08/09 07:20:05;;;;;;;13.15;5.88;;;47.10;35.60;;;;;;4991677;28;20515;-78
2021/08/09 07:22:31;;;;;;;10.73;5.80;;;47.00;35.60;;;;;;4991906;28;20031;-77
2021/08/09 07:24:56;;;;;;;10.57;7.72;;;46.80;35.70;;;;;;4991889;28;20027;-77
2021/08/09 07:27:22;;;;;;;10.40;5.40;;;46.60;35.80;;;;;;4995075;28;20054;-77
2021/08/09 07:29:47;;;;;;;9.35;6.20;;;46.50;35.90;;;;;;4995803;28;20330;-77
2021/08/09 07:32:13;;;;;;;8.60;5.38;;;46.40;36.00;;;;;;4995310;28;20046;-78
2021/08/09 07:34:39;;;;;;;7.80;5.13;;;46.20;36.10;;;;;;4995556;28;20023;-76
2021/08/09 07:37:06;;;;;;;13.52;5.90;;;45.90;36.30;;;;;;4995376;28;20636;-77
2021/08/09 07:39:36;;;;;;;9.88;5.68;;;45.80;36.60;;;;;;4996330;28;20500;-78
2021/08/09 07:42:02;;;;;;;14.18;5.28;;;45.60;36.60;;;;;;4995522;28;20035;-77
2021/08/09 07:44:28;;;;;;;12.98;5.10;;;45.40;36.70;;;;;;4995546;28;20022;-77
2021/08/09 07:46:54;;;;;;;9.43;4.57;;;45.30;37.10;;;;;;4995666;28;20030;-77
2021/08/09 07:49:20;;;;;;;16.25;4.65;;;45.10;37.30;;;;;;4995280;28;20022;-77
2021/08/09 07:51:45;;;;;;;9.77;5.00;;;44.90;37.40;;;;;;4995414;28;20160;-78
2021/08/09 07:54:11;;;;;;;9.88;5.00;;;44.80;37.60;;;;;;4995286;28;20034;-77
2021/08/09 07:56:37;;;;;;;14.48;5.93;;;44.60;38.40;;;;;;4996016;28;20033;-77
2021/08/09 07:59:03;;;;;;;9.52;5.88;;;44.40;37.90;;;;;;4995340;28;20022;-77
2021/08/09 08:01:29;;;;;;;9.18;5.00;;;44.20;37.90;;;;;;4995598;28;20026;-76
2021/08/09 08:03:54;;;;;;;19.08;5.43;;;44.00;38.10;;;;;;4995718;28;20073;-76
2021/08/09 08:06:20;;;;;;;10.23;5.50;;;43.80;38.30;;;;;;4995055;28;20505;-77
2021/08/09 08:08:46;;;;;;;9.57;6.20;;;43.50;38.50;;;;;;4995350;28;20093;-77
2021/08/09 08:11:11;;;;;;;11.82;5.38;;;43.20;38.80;;;;;;4995032;28;20033;-77
2021/08/09 08:13:37;;;;;;;9.77;5.13;;;43.00;39.20;;;;;;4995412;28;20416;-77
2021/08/09 08:16:03;;;;;;;15.27;6.90;;;42.70;39.50;;;;;;4995771;28;20038;-77
2021/08/09 08:18:28;;;;;;;15.07;5.07;;;42.50;39.60;;;;;;4994692;28;20113;-78
2021/08/09 08:20:54;;;;;;;10.88;5.18;;;42.20;39.80;;;;;;4994471;28;20018;-76
2021/08/09 08:23:20;;;;;;;7.97;5.13;;;42.00;40.20;;;;;;4994668;28;20449;-77
2021/08/09 08:25:46;;;;;;;8.30;5.43;;;41.70;40.50;;;;;;4995040;28;20022;-77
2021/08/09 08:28:11;;;;;;;9.80;5.60;;;41.30;40.80;;;;;;4994941;28;20028;-76
2021/08/09 08:30:37;;;;;;;10.07;5.13;;;41.10;41.10;;;;;;4994868;28;20030;-77
2021/08/09 08:33:03;;;;;;;9.63;4.97;;;40.80;41.20;;;;;;4994510;28;20125;-79
2021/08/09 08:35:28;;;;;;;9.85;5.40;;;40.60;41.50;;;;;;4994805;28;20030;-76
2021/08/09 08:37:54;;;;;;;10.43;5.35;;;40.40;41.80;;;;;;4992863;28;20022;-77
2021/08/09 08:40:22;;;;;;;10.23;5.40;;;40.20;42.10;;;;;;4994115;28;20047;-76
2021/08/09 08:42:48;;;;;;;10.45;5.50;;;40.00;42.40;;;;;;4994647;28;20081;-77
2021/08/09 08:45:19;;;;;;;9.32;5.35;;;39.90;42.70;;;;;;4994663;28;20061;-77
2021/08/09 08:47:47;;;;;;;8.70;5.50;;;39.80;43.00;;;;;;4994535;28;20030;-77
2021/08/09 08:50:17;;;;;;;10.27;5.20;;;39.70;43.00;;;;;;4994789;28;20113;-77
2021/08/09 08:52:47;;;;;;;12.05;6.20;;;39.60;43.20;;;;;;4994990;28;20465;-77
2021/08/09 08:55:17;;;;;;;7.80;5.65;;;39.50;43.20;;;;;;4994381;28;20038;-76
2021/08/09 08:57:45;;;;;;;7.13;5.55;;;39.40;43.30;;;;;;5010383;28;20030;-78
2021/08/09 09:00:12;;;;;;;12.63;5.57;;;39.30;43.60;;;;;;4994225;28;20105;-77
2021/08/09 09:02:39;;;;;;;8.00;6.10;;;39.30;43.80;;;;;;4994763;28;20077;-77
2021/08/09 09:05:13;;;;;;;13.10;5.75;;;39.10;43.80;;;;;;4994550;28;20110;-77
2021/08/09 09:07:40;;;;;;;16.52;6.20;;;39.00;43.90;;;;;;4994332;28;20026;-76
2021/08/09 09:10:13;;;;;;;10.32;5.88;;;38.90;44.20;;;;;;4994683;28;20026;-73
2021/08/09 09:12:39;;;;;;;17.67;6.07;;;38.70;44.30;;;;;;4994013;28;20045;-73
2021/08/09 09:15:06;;;;;;;13.90;8.40;;;38.60;44.50;;;;;;4993896;28;20050;-74
2021/08/09 09:17:39;;;;;;;12.82;6.18;;;38.50;44.70;;;;;;4993629;28;20026;-74
2021/08/09 09:20:26;;;;;;;8.05;5.72;;;38.40;45.00;;;;;;4992550;28;20046;-73
2021/08/09 09:23:16;;;;;;;9.73;5.90;;;38.30;45.00;;;;;;5011517;28;20076;-73
2021/08/09 09:25:44;;;;;;;9.13;5.70;;;38.20;45.30;;;;;;5004467;28;20034;-74
2021/08/09 09:28:29;;;;;;;11.77;6.05;;;38.20;45.70;;;;;;5014138;28;20099;-75
2021/08/09 09:31:13;;;;;;;8.85;6.60;;;38.10;45.90;;;;;;5013267;28;20046;-72
2021/08/09 09:33:46;;;;;;;11.23;5.90;;;38.00;45.80;;;;;;5012463;28;20508;-72
2021/08/09 09:36:12;;;;;;;10.90;5.80;;;38.00;45.90;;;;;;5012230;28;20030;-72
2021/08/09 09:38:42;;;;;;;10.90;6.25;;;37.80;45.90;;;;;;4994396;28;20026;-72
2021/08/09 09:41:09;;;;;;;10.23;6.60;;;37.70;45.90;;;;;;5012546;28;20561;-73
2021/08/09 09:43:42;;;;;;;11.60;6.57;;;37.70;46.30;;;;;;5011806;28;20400;-72
2021/08/09 09:46:26;;;;;;;10.90;6.80;;;37.70;46.60;;;;;;5011999;28;20076;-74
2021/08/09 09:49:01;;;;;;;9.70;7.03;;;37.60;46.50;;;;;;5011738;28;20017;-72
2021/08/09 09:51:27;;;;;;;12.02;6.70;;;37.40;46.40;;;;;;5012149;28;20032;-72
2021/08/09 09:53:52;;;;;;;9.02;7.65;;;37.40;46.60;;;;;;5012005;28;20018;-73
2021/08/09 09:56:20;;;;;;;14.10;6.30;;;37.30;46.70;;;;;;5011560;28;20839;-75
2021/08/09 09:58:46;;;;;;;9.32;6.32;;;37.30;46.90;;;;;;5012026;28;20125;-72
2021/08/09 10:01:12;;;;;;;15.60;7.03;;;37.10;47.00;;;;;;5012179;28;20056;-74
2021/08/09 10:03:39;;;;;;;11.30;6.93;;;37.00;47.20;;;;;;5011684;28;20053;-74
2021/08/09 10:06:05;;;;;;;10.02;7.80;;;36.90;47.20;;;;;;5004067;28;20037;-73
2021/08/09 10:08:43;;;;;;;19.15;7.30;;;36.90;47.30;;;;;;4987254;28;20085;-73
2021/08/09 10:11:09;;;;;;;16.17;8.10;;;36.90;47.50;;;;;;4995048;28;20421;-73
2021/08/09 10:13:37;;;;;;;12.38;7.60;;;36.80;47.70;;;;;;4992274;28;20026;-75
2021/08/09 10:16:05;;;;;;;11.50;6.93;;;36.70;47.90;;;;;;4992784;28;20022;-75
2021/08/09 10:18:43;;;;;;;11.52;7.40;;;36.60;48.00;;;;;;4992834;28;20358;-76
2021/08/09 10:21:09;;;;;;;14.27;7.75;;;36.60;48.00;;;;;;4977803;28;20030;-75
2021/08/09 10:23:44;;;;;;;23.25;7.88;;;36.50;48.00;;;;;;4994016;28;20355;-76
2021/08/09 10:26:20;;;;;;;14.27;7.00;;;36.40;48.20;;;;;;4993787;28;20019;-76
2021/08/09 10:28:53;;;;;;;15.40;7.07;;;36.40;48.20;;;;;;4976143;28;20058;-75
2021/08/09 10:31:36;;;;;;;14.95;7.10;;;36.30;48.30;;;;;;4993624;28;20121;-74
2021/08/09 10:34:28;;;;;;;9.63;6.70;;;36.20;48.40;;;;;;4993349;28;20489;-76
2021/08/09 10:37:10;;;;;;;8.82;6.50;;;36.20;48.60;;;;;;4976860;28;20747;-74
2021/08/09 10:39:58;;;;;;;11.55;6.55;;;36.00;48.60;;;;;;4994514;28;20026;-74
2021/08/09 10:42:37;;;;;;;14.13;7.28;;;36.00;48.70;;;;;;4994066;28;20034;-75
2021/08/09 10:45:12;;;;;;;19.27;6.63;;;35.90;48.70;;;;;;4976765;28;20026;-75
2021/08/09 10:47:49;;;;;;;10.32;7.03;;;35.80;48.80;;;;;;4976844;28;20030;-77
2021/08/09 10:50:42;;;;;;;15.00;7.68;;;35.80;49.00;;;;;;4994442;28;20092;-75
2021/08/09 10:53:26;;;;;;;12.57;6.70;;;35.70;49.10;;;;;;4993500;28;20063;-80
2021/08/09 10:55:53;;;;;;;11.43;6.43;;;35.60;49.20;;;;;;4993289;28;20513;-80
2021/08/09 10:59:03;;;;;;;11.05;6.43;;;35.60;49.30;;;;;;4994242;28;20036;-81
2021/08/09 11:01:59;;;;;;;12.35;6.45;;;35.50;49.60;;;;;;4917791;29;20040;-80
2021/08/09 11:04:25;;;;;;;8.43;5.60;;;35.50;49.60;;;;;;4918354;29;20075;-79
2021/08/09 11:06:55;;;;;;;9.75;7.15;;;35.50;49.80;;;;;;4924407;29;20124;-77
2021/08/09 11:09:30;;;;;;;11.77;6.70;;;35.40;49.90;;;;;;4923844;29;20048;-78
2021/08/09 11:12:14;;;;;;;12.60;7.05;;;35.40;50.00;;;;;;4914994;29;20127;-78
2021/08/09 11:15:10;;;;;;;21.90;6.43;;;35.30;49.80;;;;;;4911677;29;20035;-77
2021/08/09 11:17:39;;;;;;;9.85;6.13;;;35.20;49.90;;;;;;4910125;29;20036;-75
2021/08/09 11:20:12;;;;;;;10.27;5.93;;;35.00;50.00;;;;;;4920894;29;20139;-80
2021/08/09 11:22:39;;;;;;;10.32;6.43;;;35.00;50.30;;;;;;4898677;29;20442;-79
2021/08/09 11:25:26;;;;;;;7.55;5.93;;;34.90;50.30;;;;;;4898389;29;20061;-79
2021/08/09 11:28:12;;;;;;;14.10;7.57;;;34.90;50.60;;;;;;4898476;29;20096;-80
2021/08/09 11:30:56;;;;;;;9.57;6.13;;;34.90;50.60;;;;;;4898066;29;20036;-78
2021/08/09 11:33:35;;;;;;;15.57;6.65;;;34.90;50.60;;;;;;4899659;29;20113;-79
2021/08/09 11:36:03;;;;;;;7.20;5.85;;;34.90;50.70;;;;;;4906226;29;20077;-77
2021/08/09 11:38:43;;;;;;;12.02;6.13;;;34.80;50.60;;;;;;4925172;28;20035;-79
2021/08/09 11:41:11;;;;;;;11.68;6.25;;;34.80;50.50;;;;;;4980745;28;20031;-79
2021/08/09 11:43:38;;;;;;;15.25;6.20;;;34.70;50.80;;;;;;4977308;28;20019;-79
2021/08/09 11:46:09;;;;;;;11.90;6.30;;;34.60;50.80;;;;;;4975857;28;20031;-80
2021/08/09 11:48:39;;;;;;;16.40;5.70;;;34.50;50.80;;;;;;4976693;28;20015;-79
2021/08/09 11:51:11;;;;;;;9.27;5.50;;;34.50;50.70;;;;;;4981314;28;20031;-79
2021/08/09 11:53:43;;;;;;;10.57;6.18;;;34.50;50.70;;;;;;4978155;28;20055;-80
2021/08/09 11:56:22;;;;;;;9.90;6.05;;;34.40;50.70;;;;;;4979233;28;20026;-79
2021/08/09 11:58:48;;;;;;;9.07;6.22;;;34.40;50.70;;;;;;4976949;28;20047;-78
2021/08/09 12:01:42;;;;;;;14.90;5.90;;;34.30;50.60;;;;;;4986752;28;20038;-80
2021/08/09 12:04:14;;;;;;;14.45;6.28;;;34.30;50.70;;;;;;4995919;28;20051;-79
2021/08/09 12:06:50;;;;;;;15.25;6.25;;;34.20;50.60;;;;;;4997668;28;20022;-78
2021/08/09 12:09:24;;;;;;;9.88;6.00;;;34.10;50.60;;;;;;4976072;28;20022;-78
2021/08/09 12:12:03;;;;;;;11.50;5.70;;;34.00;50.60;;;;;;4994249;28;20030;-78
2021/08/09 12:14:30;;;;;;;14.80;5.53;;;34.00;50.70;;;;;;4994476;28;20034;-77
2021/08/09 12:16:58;;;;;;;12.13;4.97;;;33.90;50.70;;;;;;4995774;28;20098;-76
2021/08/09 12:19:40;;;;;;;8.82;6.40;;;33.90;50.80;;;;;;4998676;28;20026;-80
2021/08/09 12:22:19;;;;;;;7.63;5.30;;;33.80;50.70;;;;;;4999151;28;20057;-77
2021/08/09 12:25:22;;;;;;;5.00;4.35;;;33.70;51.40;;;;;;4999376;28;20022;-79
2021/08/09 12:28:02;;;;;;;12.40;5.00;;;33.60;50.70;;;;;;4995359;28;20019;-81
2021/08/09 12:30:28;;;;;;;11.40;5.57;;;33.60;50.90;;;;;;5001980;28;20076;-80
2021/08/09 12:33:00;;;;;;;7.38;4.60;;;33.50;51.00;;;;;;5002688;28;20046;-81
2021/08/09 12:35:37;;;;;;;5.40;4.65;;;33.50;50.90;;;;;;4994749;28;20026;-79
2021/08/09 12:38:04;;;;;;;10.48;5.53;;;33.40;50.90;;;;;;4995339;28;20101;-79
2021/08/09 12:40:43;;;;;;;6.18;4.97;;;33.30;51.00;;;;;;4975478;28;20101;-78
2021/08/09 12:43:11;;;;;;;7.60;5.05;;;33.20;50.90;;;;;;4976918;28;20359;-77
2021/08/09 12:45:39;;;;;;;9.77;4.88;;;33.20;50.90;;;;;;4994092;28;20023;-77
2021/08/09 12:48:06;;;;;;;7.28;4.53;;;33.20;51.00;;;;;;4994319;28;20022;-77
2021/08/09 12:50:35;;;;;;;19.10;9.20;;;33.10;50.90;;;;;;4994105;28;20109;-77
2021/08/09 12:53:01;;;;;;;13.23;4.47;;;33.00;51.20;;;;;;4992954;28;20076;-76
2021/08/09 12:55:26;;;;;;;7.88;4.82;;;32.90;51.20;;;;;;4993612;28;20030;-77